createdAt,value
2023-02-11T00:00:05.925Z,68.55
2023-02-11T00:03:07.888Z,68.36
2023-02-11T00:06:11.578Z,68.33
2023-02-11T00:09:13.402Z,68.42
2023-02-11T00:12:15.832Z,68.69
2023-02-11T00:15:17.724Z,68.37
2023-02-11T00:18:20.354Z,68.98
2023-02-11T00:21:24.629Z,69.29
2023-02-11T00:24:26.580Z,68.84
2023-02-11T00:27:28.386Z,68.90
2023-02-11T00:30:30.354Z,69.16
2023-02-11T00:33:32.247Z,69.11
2023-02-11T00:36:34.212Z,69.17
2023-02-11T00:39:37.093Z,69.18
2023-02-11T00:42:38.961Z,69.22
2023-02-11T00:45:40.859Z,69.28
2023-02-11T00:48:42.837Z,69.44
2023-02-11T00:51:44.771Z,69.16
2023-02-11T00:54:47.540Z,69.00
2023-02-11T00:57:49.400Z,69.08
2023-02-11T01:00:51.659Z,69.18
2023-02-11T01:03:53.530Z,69.30
2023-02-11T01:06:58.045Z,69.03
2023-02-11T01:10:00.867Z,69.32
2023-02-11T01:13:06.524Z,69.48
2023-02-11T01:16:10.149Z,69.63
2023-02-11T01:19:12.414Z,69.68
2023-02-11T01:22:14.324Z,69.90
2023-02-11T01:25:16.321Z,69.70
2023-02-11T01:28:20.657Z,69.84
2023-02-11T01:31:22.582Z,69.95
2023-02-11T01:34:24.623Z,70.41
2023-02-11T01:37:26.781Z,70.50
2023-02-11T01:40:28.632Z,70.39
2023-02-11T01:43:50.276Z,70.83
2023-02-11T01:46:52.409Z,71.23
2023-02-11T01:49:57.916Z,71.31
2023-02-11T01:53:20.081Z,71.10
2023-02-11T01:56:42.601Z,71.17
2023-02-11T02:00:10.109Z,71.45
2023-02-11T02:03:22.599Z,71.22
2023-02-11T02:06:37.346Z,71.30
2023-02-11T02:09:45.626Z,71.43
2023-02-11T02:12:47.948Z,71.47
2023-02-11T02:16:09.931Z,71.42
2023-02-11T02:20:02.918Z,70.96
2023-02-11T02:23:07.656Z,70.86
2023-02-11T02:26:30.707Z,70.71
2023-02-11T02:29:57.462Z,70.56
2023-02-11T02:33:23.016Z,70.86
2023-02-11T02:36:41.296Z,70.72
2023-02-11T02:39:46.983Z,70.89
2023-02-11T02:42:50.931Z,70.65
2023-02-11T02:45:53.311Z,71.42
2023-02-11T02:48:56.059Z,71.31
2023-02-11T02:52:12.741Z,71.08
2023-02-11T02:55:22.214Z,71.29
2023-02-11T02:58:34.836Z,71.36
2023-02-11T03:01:39.725Z,71.59
2023-02-11T03:05:03.580Z,71.52
2023-02-11T03:08:09.586Z,71.20
2023-02-11T03:11:13.482Z,71.61
2023-02-11T03:14:18.093Z,71.56
2023-02-11T03:17:22.025Z,71.07
2023-02-11T03:20:24.045Z,70.90
2023-02-11T03:23:30.853Z,71.36
2023-02-11T03:26:49.615Z,72.02
2023-02-11T03:30:00.104Z,71.47
2023-02-11T03:33:12.615Z,71.49
2023-02-11T03:36:24.413Z,71.84
2023-02-11T03:39:34.097Z,71.44
2023-02-11T03:42:46.060Z,71.78
2023-02-11T03:45:51.484Z,71.50
2023-02-11T03:48:59.385Z,71.84
2023-02-11T03:52:03.552Z,71.71
2023-02-11T03:55:12.432Z,71.47
2023-02-11T03:58:14.656Z,70.99
2023-02-11T04:01:17.061Z,71.86
2023-02-11T04:04:19.238Z,71.74
2023-02-11T04:07:21.103Z,71.85
2023-02-11T04:10:22.922Z,71.52
2023-02-11T04:13:24.760Z,71.68
2023-02-11T04:16:26.781Z,71.69
2023-02-11T04:19:28.650Z,72.13
2023-02-11T04:22:31.545Z,72.00
2023-02-11T04:25:33.257Z,72.54
2023-02-11T04:28:36.371Z,72.29
2023-02-11T04:31:38.269Z,71.97
2023-02-11T04:34:40.363Z,72.40
2023-02-11T04:37:42.188Z,72.22
2023-02-11T04:40:44.072Z,71.68
2023-02-11T04:43:45.985Z,71.59
2023-02-11T04:46:48.316Z,71.90
2023-02-11T04:49:50.196Z,72.35
2023-02-11T04:52:52.054Z,72.24
2023-02-11T04:55:53.922Z,72.67
2023-02-11T04:58:55.822Z,72.61
2023-02-11T05:01:57.816Z,72.48
2023-02-11T05:04:59.730Z,72.77
2023-02-11T05:08:01.583Z,72.67
2023-02-11T05:11:03.738Z,72.23
2023-02-11T05:14:06.659Z,72.43
2023-02-11T05:17:08.554Z,72.89
2023-02-11T05:20:10.943Z,72.56
2023-02-11T05:23:12.766Z,72.58
2023-02-11T05:26:14.972Z,72.75
2023-02-11T05:29:16.721Z,72.08
2023-02-11T05:32:18.551Z,72.45
2023-02-11T05:35:20.542Z,72.34
2023-02-11T05:38:22.294Z,72.67
2023-02-11T05:41:24.458Z,72.37
2023-02-11T05:44:26.356Z,71.83
2023-02-11T05:47:28.219Z,72.35
2023-02-11T05:50:30.071Z,72.06
2023-02-11T05:53:31.931Z,72.24
2023-02-11T05:56:33.782Z,71.71
2023-02-11T05:59:35.688Z,72.06
2023-02-11T06:02:37.526Z,72.06
2023-02-11T06:05:39.382Z,72.30
2023-02-11T06:08:41.679Z,72.31
2023-02-11T06:11:43.502Z,72.18
2023-02-11T06:14:45.368Z,72.24
2023-02-11T06:17:47.323Z,72.12
2023-02-11T06:20:49.191Z,72.57
2023-02-11T06:23:50.957Z,72.49
2023-02-11T06:26:52.766Z,72.56
2023-02-11T06:29:54.602Z,72.24
2023-02-11T06:32:56.505Z,72.52
2023-02-11T06:35:58.280Z,72.96
2023-02-11T06:39:00.044Z,73.19
2023-02-11T06:42:01.879Z,72.48
2023-02-11T06:45:06.144Z,72.64
2023-02-11T06:48:08.050Z,72.20
2023-02-11T06:51:12.105Z,72.63
2023-02-11T06:54:13.944Z,72.77
2023-02-11T06:57:15.800Z,72.35
2023-02-11T07:00:17.876Z,72.46
2023-02-11T07:03:19.738Z,72.27
2023-02-11T07:06:23.863Z,72.29
2023-02-11T07:09:25.657Z,71.95
2023-02-11T07:12:27.485Z,72.37
2023-02-11T07:15:29.342Z,71.67
2023-02-11T07:18:31.220Z,72.16
2023-02-11T07:21:33.163Z,71.72
2023-02-11T07:24:34.927Z,72.05
2023-02-11T07:27:36.889Z,71.77
2023-02-11T07:30:38.763Z,71.56
2023-02-11T07:33:42.923Z,71.87
2023-02-11T07:36:45.217Z,71.53
2023-02-11T07:39:46.995Z,71.04
2023-02-11T07:42:48.780Z,70.98
2023-02-11T07:45:50.882Z,71.37
2023-02-11T07:48:53.099Z,71.13
2023-02-11T07:51:55.075Z,71.67
2023-02-11T07:54:57.412Z,71.54
2023-02-11T07:57:59.246Z,71.77
2023-02-11T08:01:03.182Z,71.20
2023-02-11T08:04:05.306Z,71.43
2023-02-11T08:07:07.183Z,71.22
2023-02-11T08:10:09.211Z,72.25
2023-02-11T08:13:11.001Z,71.79
2023-02-11T08:16:26.930Z,71.59
2023-02-11T08:19:29.085Z,71.89
2023-02-11T08:22:35.046Z,71.33
2023-02-11T08:25:36.922Z,71.22
2023-02-11T08:28:40.567Z,71.60
2023-02-11T08:31:45.672Z,71.19
2023-02-11T08:34:51.593Z,71.29
2023-02-11T08:37:53.517Z,71.41
2023-02-11T08:40:55.351Z,70.99
2023-02-11T08:43:57.263Z,71.52
2023-02-11T08:46:59.101Z,71.32
2023-02-11T08:50:00.850Z,70.86
2023-02-11T08:53:02.734Z,71.08
2023-02-11T08:56:06.152Z,70.79
2023-02-11T08:59:09.544Z,70.82
2023-02-11T09:02:14.948Z,70.45
2023-02-11T09:05:16.846Z,70.58
2023-02-11T09:08:19.483Z,70.44
2023-02-11T09:11:26.129Z,69.97
2023-02-11T09:14:28.378Z,70.03
2023-02-11T09:17:30.229Z,70.37
2023-02-11T09:20:32.293Z,69.49
2023-02-11T09:23:34.880Z,69.08
2023-02-11T09:26:37.122Z,69.11
2023-02-11T09:29:38.907Z,68.73
2023-02-11T09:32:40.775Z,68.84
2023-02-11T09:35:42.563Z,68.59
2023-02-11T09:38:44.590Z,68.36
2023-02-11T09:42:07.927Z,68.48
2023-02-11T09:45:12.822Z,67.73
2023-02-11T09:48:18.637Z,67.85
2023-02-11T09:51:40.781Z,67.38
2023-02-11T09:54:56.780Z,67.47
2023-02-11T09:57:58.906Z,67.87
2023-02-11T10:01:41.302Z,67.14
2023-02-11T10:05:20.966Z,67.17
2023-02-11T10:08:49.968Z,67.09
2023-02-11T10:12:20.525Z,66.32
2023-02-11T10:16:16.569Z,66.33
2023-02-11T10:19:31.149Z,66.36
2023-02-11T10:22:39.857Z,67.03
2023-02-11T10:25:49.125Z,66.63
2023-02-11T10:28:55.099Z,66.33
2023-02-11T10:31:58.924Z,66.27
2023-02-11T10:35:15.245Z,66.47
2023-02-11T10:38:17.048Z,66.09
2023-02-11T10:41:26.418Z,64.99
2023-02-11T10:44:37.946Z,65.97
2023-02-11T10:47:41.612Z,66.11
2023-02-11T10:50:43.397Z,66.57
2023-02-11T10:53:46.993Z,66.23
2023-02-11T10:56:52.874Z,66.07
2023-02-11T11:00:02.592Z,66.22
2023-02-11T11:03:21.139Z,65.74
2023-02-11T11:06:33.718Z,65.78
2023-02-11T11:09:48.638Z,65.65
2023-02-11T11:12:50.882Z,65.80
2023-02-11T11:16:13.015Z,65.55
2023-02-11T11:19:22.946Z,65.58
2023-02-11T11:22:24.808Z,65.33
2023-02-11T11:25:30.603Z,65.18
2023-02-11T11:29:01.774Z,65.04
2023-02-11T11:32:11.717Z,65.28
2023-02-11T11:35:27.582Z,65.10
2023-02-11T11:38:31.638Z,64.94
2023-02-11T11:41:34.827Z,64.87
2023-02-11T11:44:39.643Z,65.38
2023-02-11T11:48:06.542Z,65.13
2023-02-11T11:51:12.809Z,65.11
2023-02-11T11:54:18.486Z,65.18
2023-02-11T11:57:26.114Z,65.36
2023-02-11T12:00:44.109Z,65.48
2023-02-11T12:04:10.812Z,65.25
2023-02-11T12:07:40.425Z,65.52
2023-02-11T12:11:19.511Z,65.67
2023-02-11T12:14:46.218Z,65.45
2023-02-11T12:18:06.399Z,65.80
2023-02-11T12:21:17.043Z,65.85
2023-02-11T12:24:37.064Z,65.54
2023-02-11T12:27:54.871Z,65.69
2023-02-11T12:31:02.492Z,65.71
2023-02-11T12:34:19.102Z,65.70
2023-02-11T12:37:35.133Z,65.87
2023-02-11T12:40:46.147Z,66.02
2023-02-11T12:43:48.185Z,66.25
2023-02-11T12:47:21.979Z,66.58
2023-02-11T12:50:42.547Z,66.52
2023-02-11T12:54:22.885Z,66.16
2023-02-11T12:57:32.148Z,66.51
2023-02-11T13:00:47.695Z,66.58
2023-02-11T13:04:04.752Z,66.49
2023-02-11T13:07:16.010Z,66.44
2023-02-11T13:10:30.179Z,66.37
2023-02-11T13:13:39.395Z,66.57
2023-02-11T13:16:47.564Z,66.64
2023-02-11T13:19:58.936Z,66.71
2023-02-11T13:23:09.794Z,66.83
2023-02-11T13:26:18.985Z,67.12
2023-02-11T13:29:38.031Z,67.37
2023-02-11T13:32:55.619Z,67.67
2023-02-11T13:35:57.327Z,68.08
2023-02-11T13:39:02.823Z,68.19
2023-02-11T13:42:05.009Z,68.53
2023-02-11T13:45:25.106Z,68.50
2023-02-11T13:48:38.288Z,68.74
2023-02-11T13:51:42.167Z,69.17
2023-02-11T13:54:49.089Z,68.87
2023-02-11T13:58:14.184Z,69.14
2023-02-11T14:02:06.724Z,69.58
2023-02-11T14:05:27.448Z,69.73
2023-02-11T14:08:47.896Z,69.87
2023-02-11T14:12:14.592Z,70.06
2023-02-11T14:15:21.826Z,70.09
2023-02-11T14:18:45.567Z,70.20
2023-02-11T14:21:47.512Z,70.13
2023-02-11T14:24:54.180Z,70.39
2023-02-11T14:28:21.751Z,70.55
2023-02-11T14:31:31.889Z,70.85
2023-02-11T14:34:43.054Z,71.01
2023-02-11T14:37:51.383Z,70.65
2023-02-11T14:41:24.669Z,71.16
2023-02-11T14:44:30.390Z,71.33
2023-02-11T14:47:45.066Z,71.61
2023-02-11T14:50:52.085Z,72.29
2023-02-11T14:54:10.976Z,72.10
2023-02-11T14:57:20.748Z,72.09
2023-02-11T15:00:23.152Z,72.28
2023-02-11T15:03:37.402Z,72.49
2023-02-11T15:06:42.612Z,72.77
2023-02-11T15:09:50.100Z,72.83
2023-02-11T15:12:52.356Z,73.02
2023-02-11T15:16:22.528Z,73.31
2023-02-11T15:19:38.743Z,73.36
2023-02-11T15:22:40.592Z,73.57
2023-02-11T15:25:56.040Z,73.74
2023-02-11T15:28:58.543Z,73.62
2023-02-11T15:32:27.197Z,74.04
2023-02-11T15:35:40.990Z,73.86
2023-02-11T15:38:43.182Z,74.18
2023-02-11T15:41:45.285Z,74.39
2023-02-11T15:44:54.346Z,74.63
2023-02-11T15:48:10.862Z,75.28
2023-02-11T15:51:12.842Z,75.09
2023-02-11T15:54:26.756Z,75.11
2023-02-11T15:57:29.077Z,75.28
2023-02-11T16:00:48.214Z,75.62
2023-02-11T16:03:50.722Z,75.42
2023-02-11T16:06:54.525Z,75.67
2023-02-11T16:09:58.638Z,75.44
2023-02-11T16:13:06.432Z,75.91
2023-02-11T16:16:19.646Z,76.24
2023-02-11T16:19:25.327Z,76.66
2023-02-11T16:22:35.550Z,76.31
2023-02-11T16:25:37.981Z,76.07
2023-02-11T16:28:40.880Z,76.68
2023-02-11T16:31:48.332Z,76.62
2023-02-11T16:34:51.526Z,76.76
2023-02-11T16:37:54.427Z,76.76
2023-02-11T16:40:56.244Z,76.68
2023-02-11T16:43:58.903Z,76.78
2023-02-11T16:47:03.486Z,76.87
2023-02-11T16:50:09.521Z,76.57
2023-02-11T16:53:12.170Z,77.02
2023-02-11T16:56:18.435Z,77.33
2023-02-11T16:59:20.882Z,77.35
2023-02-11T17:02:33.344Z,77.14
2023-02-11T17:05:58.301Z,77.76
2023-02-11T17:08:57.930Z,77.70
2023-02-11T17:12:00.286Z,77.79
2023-02-11T17:15:02.264Z,77.55
2023-02-11T17:18:04.455Z,77.77
2023-02-11T17:21:07.278Z,77.73
2023-02-11T17:24:09.338Z,77.91
2023-02-11T17:27:12.027Z,77.80
2023-02-11T17:30:14.626Z,78.20
2023-02-11T17:33:16.667Z,77.95
2023-02-11T17:36:18.553Z,78.09
2023-02-11T17:39:21.180Z,78.15
2023-02-11T17:42:23.284Z,77.80
2023-02-11T17:45:25.205Z,77.96
2023-02-11T17:48:26.995Z,78.11
2023-02-11T17:51:37.347Z,78.00
2023-02-11T17:54:39.742Z,78.14
2023-02-11T17:57:41.640Z,78.16
2023-02-11T18:00:43.520Z,78.04
2023-02-11T18:03:45.982Z,78.44
2023-02-11T18:06:47.813Z,78.45
2023-02-11T18:09:49.616Z,78.33
2023-02-11T18:12:51.442Z,78.68
2023-02-11T18:15:53.699Z,78.56
2023-02-11T18:18:57.685Z,78.58
2023-02-11T18:22:01.056Z,78.53
2023-02-11T18:25:03.113Z,78.98
2023-02-11T18:28:05.197Z,78.65
2023-02-11T18:31:09.060Z,78.83
2023-02-11T18:34:11.771Z,78.97
2023-02-11T18:37:14.429Z,78.63
2023-02-11T18:40:16.290Z,78.77
2023-02-11T18:43:20.101Z,79.20
2023-02-11T18:46:22.110Z,78.76
2023-02-11T18:49:24.122Z,78.96
2023-02-11T18:52:26.076Z,79.17
2023-02-11T18:55:27.937Z,79.15
2023-02-11T18:58:29.958Z,79.38
2023-02-11T19:01:33.712Z,79.50
2023-02-11T19:04:37.526Z,79.31
2023-02-11T19:07:39.752Z,79.12
2023-02-11T19:10:43.583Z,79.59
2023-02-11T19:13:49.772Z,79.30
2023-02-11T19:16:54.043Z,79.54
2023-02-11T19:19:55.971Z,79.51
2023-02-11T19:22:57.981Z,79.93
2023-02-11T19:25:59.972Z,79.94
2023-02-11T19:29:02.348Z,79.82
2023-02-11T19:32:08.932Z,79.97
2023-02-11T19:35:10.983Z,80.01
2023-02-11T19:38:14.215Z,80.00
2023-02-11T19:41:16.236Z,80.30
2023-02-11T19:44:18.164Z,80.04
2023-02-11T19:47:20.083Z,80.25
2023-02-11T19:50:22.301Z,80.33
2023-02-11T19:53:24.692Z,80.40
2023-02-11T19:56:28.873Z,80.41
2023-02-11T19:59:30.815Z,80.37
2023-02-11T20:02:32.867Z,80.42
2023-02-11T20:05:35.180Z,80.55
2023-02-11T20:08:37.037Z,80.63
2023-02-11T20:11:40.613Z,80.45
2023-02-11T20:14:42.705Z,80.65
2023-02-11T20:17:44.860Z,80.90
2023-02-11T20:20:46.847Z,80.53
2023-02-11T20:23:50.045Z,80.64
2023-02-11T20:26:55.933Z,80.86
2023-02-11T20:29:58.068Z,80.83
2023-02-11T20:32:59.849Z,80.90
2023-02-11T20:36:08.043Z,81.13
2023-02-11T20:39:11.440Z,81.54
2023-02-11T20:42:14.725Z,81.63
2023-02-11T20:45:16.650Z,81.78
2023-02-11T20:48:18.592Z,82.06
2023-02-11T20:51:23.999Z,82.48
2023-02-11T20:54:26.238Z,82.63
2023-02-11T20:57:28.558Z,82.60
2023-02-11T21:00:31.034Z,82.67
2023-02-11T21:03:32.879Z,83.06
2023-02-11T21:06:40.339Z,83.00
2023-02-11T21:09:42.284Z,82.79
2023-02-11T21:12:44.182Z,82.76
2023-02-11T21:15:46.080Z,82.66
2023-02-11T21:18:49.263Z,82.55
2023-02-11T21:21:51.317Z,82.87
2023-02-11T21:24:53.171Z,82.90
2023-02-11T21:27:55.107Z,82.76
2023-02-11T21:30:58.368Z,83.26
2023-02-11T21:34:00.417Z,83.00
2023-02-11T21:37:02.277Z,82.54
2023-02-11T21:40:04.551Z,82.89
2023-02-11T21:43:06.564Z,82.65
2023-02-11T21:46:11.284Z,82.65
2023-02-11T21:49:13.427Z,82.84
2023-02-11T21:52:15.340Z,83.07
2023-02-11T21:55:17.243Z,82.89
2023-02-11T21:58:19.055Z,82.70
2023-02-11T22:01:30.776Z,82.74
2023-02-11T22:04:33.473Z,83.03
2023-02-11T22:07:36.557Z,82.67
2023-02-11T22:10:39.049Z,83.05
2023-02-11T22:13:42.393Z,82.96
2023-02-11T22:16:46.097Z,83.05
2023-02-11T22:19:47.961Z,82.96
2023-02-11T22:22:50.788Z,83.15
2023-02-11T22:25:52.820Z,82.93
2023-02-11T22:28:55.492Z,82.95
2023-02-11T22:31:57.417Z,83.15
2023-02-11T22:34:59.343Z,83.16
2023-02-11T22:38:01.161Z,82.87
2023-02-11T22:41:09.549Z,82.85
2023-02-11T22:44:12.044Z,82.81
2023-02-11T22:47:13.859Z,82.83
2023-02-11T22:50:15.854Z,83.07
2023-02-11T22:53:17.708Z,82.87
2023-02-11T22:56:20.106Z,83.14
2023-02-11T22:59:21.980Z,82.78
2023-02-11T23:02:23.804Z,82.97
2023-02-11T23:05:25.671Z,83.06
2023-02-11T23:08:29.577Z,82.93
2023-02-11T23:11:32.488Z,82.87
2023-02-11T23:14:34.345Z,83.33
2023-02-11T23:17:36.437Z,83.06
2023-02-11T23:20:40.818Z,83.03
2023-02-11T23:23:42.980Z,83.22
2023-02-11T23:26:45.139Z,83.40
2023-02-11T23:29:46.942Z,83.59
2023-02-11T23:32:49.981Z,83.62
2023-02-11T23:35:51.688Z,83.73
2023-02-11T23:38:53.515Z,83.62
2023-02-11T23:41:59.597Z,83.68
2023-02-11T23:45:01.589Z,83.87
2023-02-11T23:48:03.527Z,84.01
2023-02-11T23:51:06.455Z,83.77
2023-02-11T23:54:12.317Z,83.89
2023-02-11T23:57:14.446Z,83.81
